Delray Beach, FL

9:38 AM EDT on October 20, 2014 (GMT -0400)
Lake Ida | Change Station
CLOSE
Current Station
Personal Weather Station
Location: Delray Beach, FL
Elevation: 10 ft
Nearby Weather Stations

Elev 10 ft 26.47 °N, 80.08 °W | Updated 2 seconds ago

Clear
Clear
83.5 °F
Feels Like 86 °F
N
0.0
Wind Variable Wind from NNE
Gusts 5.0 mph

Today
High -- | Low -- °F
--% Chance of Precip.
Yesterday
High -- | Low -- °F
Precip. -- in
7:22 AM 6:47 PM
Waning Crescent, 11% visible
Pressure 30.02 in
Visibility 10.0 miles
Clouds Clear
Heat Index 86 °F
Dew Point 66 °F
Humidity 55%
Rainfall 0.00 in
Snow Depth Not available.
UV 2 out of 12
Pollen 4.50 out of 12
Ozone Good
PM2.5 Good
Flu Activity Local Activity
METAR KPMP 201253Z 10008KT 10SM CLR 28/17 A3002 RMK AO2 SLP166 T02780172

More Conditions Fewer Conditions

Pressure 30.02 in
Visibility 10.0 miles
Clouds Clear
Heat Index 86 °F
Dew Point 66 °F
Humidity 55%
Rainfall 0.00 in
Snow Depth Not available.
UV 2 out of 12
Pollen 4.50 out of 12
Ozone Good
PM2.5 Good
Flu Activity Local Activity
METAR KPMP 201253Z 10008KT 10SM CLR 28/17 A3002 RMK AO2 SLP166 T02780172

More Conditions Fewer Conditions

10-Day Weather Forecast

Almanac

Astronomy

Oct. 20, 2014 Rise Set
Actual Time 7:22 AM EDT 6:47 PM EDT
Civil Twilight 6:58 AM EDT 7:10 PM EDT
Nautical Twilight 6:31 AM EDT 7:37 PM EDT
Astronomical Twilight 6:04 AM EDT 8:04 PM EDT
Moon 4:26 AM EDT 4:54 PM EDT
Length of Visible Light 12h 12m
Length of Day
11h 25m
Waning Crescent, 11% of the Moon is Illuminated
Today
Waning Crescent
Oct 23
New
Oct 30
First Quarter
Nov 6
Full
Nov 14
Last Quarter

Today's Extremes

State Highs State Lows

Community

WunderPhotos

Upload Photos

1,763,381 photos uploaded!

Nearby

Air Quality

  Air Quality AQ Index Pollutant
Yesterday Good
PM2.5
Yesterday Good
OZONE
Current Good
PM2.5
Current Good
OZONE
Monday Good
OZONE
Monday Good
PM2.5
Tuesday Good
OZONE
Tuesday Good
PM2.5

Snow Depth

Station Depth Elevation
No new snow has been reported.

Earthquake Activity

City Distance Mag. Time & Date
No recent earthquake activity has been reported nearby.
Minimum magnitude displayed is 2.5.

Coastal Water Temperatures

Place Temperature
Lake Worth, FL 82.0 °F
Virginia Key, FL 81.0 °F

Nearby Weather Stations